TimeCST,TemperatureF,Dew PointF,Humidity,Sea Level PressureIn,VisibilityMPH,Wind Direction,Wind SpeedMPH,Gust SpeedMPH,PrecipitationIn,Events,Conditions,WindDirDegrees,DateUTC
12:54 AM,37.0,27.0,67,30.38,10.0,Calm,Calm,-,N/A,,Mostly Cloudy,0,2012-11-14 06:54:00
1:54 AM,39.0,27.0,62,30.37,10.0,SSE,11.5,-,N/A,,Mostly Cloudy,160,2012-11-14 07:54:00
2:54 AM,37.9,27.0,65,30.36,10.0,South,10.4,-,N/A,,Scattered Clouds,170,2012-11-14 08:54:00
3:54 AM,37.0,27.0,67,30.36,10.0,South,8.1,-,N/A,,Mostly Cloudy,170,2012-11-14 09:54:00
4:54 AM,37.0,28.0,70,30.36,10.0,South,8.1,-,N/A,,Overcast,170,2012-11-14 10:54:00
5:54 AM,36.0,28.0,73,30.36,10.0,South,6.9,-,N/A,,Scattered Clouds,180,2012-11-14 11:54:00
6:54 AM,36.0,28.0,73,30.36,10.0,South,8.1,-,N/A,,Partly Cloudy,170,2012-11-14 12:54:00
7:54 AM,36.0,28.9,76,30.37,10.0,South,8.1,-,N/A,,Clear,170,2012-11-14 13:54:00
8:54 AM,39.9,30.0,68,30.37,10.0,South,11.5,-,N/A,,Clear,170,2012-11-14 14:54:00
9:54 AM,44.1,30.9,60,30.37,10.0,South,10.4,-,N/A,,Clear,190,2012-11-14 15:54:00
10:54 AM,48.0,30.9,52,30.36,10.0,South,12.7,-,N/A,,Clear,180,2012-11-14 16:54:00
11:54 AM,52.0,32.0,47,30.33,10.0,SSW,11.5,-,N/A,,Clear,200,2012-11-14 17:54:00
12:54 PM,54.0,28.9,38,30.30,10.0,SSW,12.7,-,N/A,,Clear,210,2012-11-14 18:54:00
1:54 PM,55.0,28.0,35,30.29,10.0,South,13.8,-,N/A,,Clear,190,2012-11-14 19:54:00
2:54 PM,54.0,25.0,33,30.28,10.0,SSW,17.3,24.2,N/A,,Clear,210,2012-11-14 20:54:00
3:54 PM,53.1,25.0,34,30.28,10.0,SSW,10.4,-,N/A,,Clear,200,2012-11-14 21:54:00
4:54 PM,46.9,25.0,42,30.27,10.0,South,8.1,-,N/A,,Clear,190,2012-11-14 22:54:00
5:54 PM,46.0,26.1,46,30.27,10.0,South,8.1,-,N/A,,Clear,180,2012-11-14 23:54:00
6:54 PM,45.0,26.1,48,30.27,10.0,South,10.4,-,N/A,,Clear,170,2012-11-15 00:54:00
7:54 PM,44.1,26.1,49,30.27,10.0,South,11.5,-,N/A,,Clear,180,2012-11-15 01:54:00
8:54 PM,42.1,26.1,53,30.28,10.0,South,8.1,-,N/A,,Clear,170,2012-11-15 02:54:00
9:54 PM,41.0,27.0,57,30.27,10.0,South,6.9,-,N/A,,Clear,170,2012-11-15 03:54:00
10:54 PM,39.9,27.0,60,30.27,10.0,South,10.4,-,N/A,,Clear,180,2012-11-15 04:54:00
11:54 PM,37.9,28.0,68,30.28,10.0,South,8.1,-,N/A,,Clear,170,2012-11-15 05:54:00